サンパウロ/グアルーリョス の空港の天気 - METARとTAF

グアルーリョス国際空港 (サンパウロ) ( SBGR / GRU ) - ブラジル サンパウロ州サンパウロ市
飛行場実況気象(Metar)
観測時間05/25 21:00 BRT (05/26 00:00 UTC)
風向・風速西北西 5m/s 瞬間風速10m/s
視程10km以上
天気現象
なし
気温15℃
湿度55%
気圧1016hPa
METARSBGR 260000Z 30010G20KT CAVOK 15/06 Q1016
過去の天気等 Google飛行場航空写真 Wunderground天気予報

過去48時間のMETAR

飛行場予報(TAF)
発表時間: 5/25 19:00 BRT (5/25 22:00 UTC)
予報対象時間: 25日21時 BRT ~ 27日3時 BRT
風向・風速北西 5m/s
視程10km以上
なし
25日22時 BRT ~ 25日24時 BRT に徐々に
少しの雲 雲底高度 610m
26日9時 BRT ~ 26日11時 BRT に徐々に
風向・風速北西 4m/s
視程10km以上
なし
26日15時 BRT ~ 26日17時 BRT に徐々に
風向・風速西北西 3m/s
26日23時 BRT から 確率 30% で
全天の4割程度の雲 雲底高度 60m
TAF SBGR 252200Z 2600/2706 31010KT CAVOK TN10/2609Z TX20/2618Z
BECMG 2601/2603 FEW020
BECMG 2612/2614 32008KT CAVOK
BECMG 2618/2620 30005KT
PROB30 2702/2706 SCT002 RMK PHM